Hovedside
METAR-TAF:

METAR-TAF

Lufthavner :

Luleå lufthavn

Luleå, Sverige

breddegrad: 65-33N, lengdegrad: 022-08E, høyde over havet: 17 m

Gjeldene værobservasjon

Denne rapporten ble laget for 34 minutter siden, klokken 23:20 UTC
Flau vind
Temperatur -19°C
Luftfuktighet 84%
Trykk 1030 hPa
Sikt 10 km eller mer

METAR: ESPA 132320Z AUTO 00000KT 9999 NCD M19/M21 Q1030

Tid: 00:54 (23:54 UTC)

Varsel

Denne rapporten ble laget for 3 timer og 24 minutter siden, klokken 20:30 UTC
Varsel gyldig fra 13. klokken 21 UTC til 13. klokken 24 UTC
Vind 3 kt fra Nordvest
Sikt 10 km eller mer
ingen skyer under 1500 m og ingen bygeskyer

TAF: ESPA 132030Z 1321/1324 31003KT CAVOK

Værobservasjoner og værvarsel for over 4000 flyplasser (METAR- og TAF-rapporter).

Tilgjengelige stasjoner er representert av de røde og gule prikkene på kartet.

Hold musepekeren over prikken for å se navnet på stasjonen.

Klikk så for å se værobservasjoner og -varsler.

For å forandre kartet kan du klikke på den grønne knappen med svart kryss for å zoome inn, på den grønne knappen med strek for å zoome ut, eller på de grønne pilene for å se tilstøtende kart.


METAR-TAF: